Aviation Digital Data Service (ADDS)

Output produced by METARs form (1203 UTC 16 September 2019)
found at http://www.aviationweather.gov/metar/data/
 
TAF LECO 160800Z 1609/1709 VRB05KT CAVOK TX25/1615Z TN14/1705Z 
     TEMPO 1610/1621 02010KT 
     PROB30 
     TEMPO 1612/1621 TSRA SCT030CB SCT040TCU 
     PROB30 
     TEMPO 1613/1617 03015G25KT
       
TAF LEAB 161100Z 1612/1621 VRB05KT 9999 SCT030 
     PROB30 
     TEMPO 1612/1616 FEW025TCU
       
TAF LERI 161100Z 1612/1621 24005KT CAVOK 
     PROB30 
     TEMPO 1612/1618 FEW035CB
       
TAF LEAL 161100Z 1612/1712 15010KT 9999 FEW035 TX26/1612Z TN19/1706Z 
     BECMG 1618/1620 VRB04KT 
     BECMG 1710/1712 09010KT
       
TAF AMD LEAM 161107Z 1611/1709 19010KT 9999 SCT030 TX28/1615Z TN22/1706Z 
     TEMPO 1612/1618 FEW035CB 
     BECMG 1620/1622 VRB03KT
       
TAF LEGA 161100Z 1612/1621 VRB03KT CAVOK 
     BECMG 1616/1618 18010KT
       
TAF LEAS 160800Z 1609/1709 VRB04KT 9999 FEW005 SCT015 TX22/1614Z TN17/1705Z 
     TEMPO 1609/1610 BKN010 
     PROB40 
     TEMPO 1611/1618 06010KT 
     PROB30 
     TEMPO 1615/1621 TSRA SCT030CB 
     TEMPO 1621/1708 3000 BR 
     PROB40 
     TEMPO 1621/1707 0800 BCFG BKN005 
     PROB40 
     TEMPO 1700/1706 0350 FG VV001
       
TAF LEMD 161100Z 1612/1718 VRB05KT 9999 FEW028 TX25/1615Z TN14/1706Z
       
TAF LEBL 161100Z 1612/1712 08010KT 9999 FEW030 TX27/1612Z TN19/1706Z 
     BECMG 1619/1621 02004KT 
     BECMG 1700/1702 34007KT 
     BECMG 1707/1709 13005KT
       
TAF LEBB 161100Z 1612/1712 10005KT 9999 SCT050 TX30/1614Z TN18/1705Z 
     PROB40 
     TEMPO 1612/1619 36010KT 
     PROB30 
     TEMPO 1613/1620 SHRA SCT030TCU 
     PROB30 
     TEMPO 1700/1708 1500 BR BCFG
       
TAF LEBG 161100Z 1612/1621 04010KT 9999 BKN030 
     PROB40 
     TEMPO 1612/1621 4000 RA SHRA BKN012 SCT025TCU 
     PROB40 
     TEMPO 1614/1621 3000 TS SHRA SCT025CB
       
TAF LEBA 161100Z 1612/1621 24004KT CAVOK
       
TAF LEVS 161100Z 1612/1621 VRB04KT CAVOK 
     PROB30 
     TEMPO 1612/1616 FEW030TCU
       
TAF GCFV 160800Z 1609/1709 06012KT 9999 FEW015 TX28/1614Z TN22/1705Z 
     PROB30 
     TEMPO 1609/1611 36008KT 
     TEMPO 1621/1706 36010KT 
     TEMPO 1609/1614 VRB07KT TSRA SCT140CB
       
TAF LEGT 161100Z 1612/1621 VRB04KT CAVOK 
     PROB30 
     TEMPO 1612/1616 FEW030TCU
       
TAF AMD LEGE 161144Z 1612/1712 09005KT 9999 FEW040 TX31/1613Z TN18/1706Z 
     PROB40 
     TEMPO 1612/1614 SHRA FEW050CB 
     BECMG 1612/1614 18010KT 
     BECMG 1618/1620 VRB03KT 
     BECMG 1710/1712 13010KT
       
TAF GCLP 160800Z 1609/1709 03018KT 9999 FEW020 TX28/1614Z TN20/1705Z 
     PROB40 
     TEMPO 1609/1612 35008KT 
     BECMG 1621/1623 33010KT 
     BECMG 1706/1708 03018KT 
     PROB40 
     TEMPO 1609/1613 VRB07KT TSRA SCT140CB
       
TAF LEGR 160800Z 1609/1709 VRB02KT 9999 FEW030 TX30/1615Z TN17/1706Z 
     BECMG 1616/1618 21010KT 
     BECMG 1620/1622 VRB03KT
       
TAF GCHI 160800Z 1609/1709 01016KT 9999 FEW020 TX27/1614Z TN23/1705Z 
     PROB40 
     TEMPO 1610/1616 08007KT
       
TAF LEIB 160800Z 1609/1709 03010KT 9000 FEW016 TX27/1612Z TN20/1706Z 
     TEMPO 1610/1616 VRB05KT 
     BECMG 1616/1618 30005KT 
     PROB30 
     TEMPO 1620/1706 4000 BR
       
TAF LEJR 161100Z 1612/1712 VRB02KT CAVOK TX29/1614Z TN16/1706Z 
     BECMG 1612/1614 28010KT 
     BECMG 1619/1621 VRB02KT 
     PROB40 
     TEMPO 1702/1708 4000 BR BKN008
       
TAF GCGM 160800Z 1609/1709 22007KT CAVOK TX29/1614Z TN22/1705Z
       
TAF AMD GCLA 161014Z 1610/1709 03010KT 9999 FEW020 TX28/1614Z TN22/1705Z
       
TAF GCRR 160800Z 1609/1709 07013KT 9999 FEW020 TX30/1614Z TN21/1705Z 
     BECMG 1618/1620 01010KT 
     BECMG 1706/1708 07012KT 
     TEMPO 1609/1614 VRB07KT TSRA SCT140CB
       
TAF LELN 161100Z 1612/1621 06006KT 9999 BKN035 
     PROB40 
     TEMPO 1612/1620 4000 RA SHRA SCT025TCU 
     PROB30 
     TEMPO 1614/1618 3000 TS SHRA SCT025CB
       
TAF LEMG 161100Z 1612/1712 14009KT 9999 FEW030 TX28/1612Z TN21/1706Z 
     BECMG 1620/1622 29005KT 
     PROB40 
     TEMPO 1700/1709 4000 BR BKN010
       
TAF GEML 160800Z 1609/1709 06005KT 9999 FEW010 TX27/1614Z TN21/1706Z 
     PROB30 
     TEMPO 1609/1612 4000 BR BKN008 
     PROB40 
     TEMPO 1622/1709 3000 BR BKN006
       
TAF LEMH 160800Z 1609/1709 10012KT 9000 SCT012 TX27/1612Z TN20/1706Z 
     TEMPO 1620/1706 4000 BR BKN008 
     BECMG 1622/1624 18007KT
       
TAF LEMO 161100Z 1612/1621 27006KT CAVOK
       
TAF LEPP 160800Z 1609/1709 VRB05KT 9999 SCT030 TX30/1614Z TN16/1705Z 
     TEMPO 1615/1621 SCT030TCU
       
TAF LERS 160800Z 1609/1709 03005KT 9999 FEW040 TX28/1613Z TN17/1706Z 
     BECMG 1610/1612 12010KT 
     BECMG 1617/1619 VRB03KT
       
TAF LERT 161100Z 1612/1621 21007KT 9000 SCT010
       
TAF LESA 161100Z 1612/1712 VRB04KT CAVOK TX24/1615Z TN12/1706Z 
     PROB30 
     TEMPO 1613/1618 4000 SHRA SCT030TCU 
     PROB30 
     TEMPO 1613/1618 VRB15G25KT 3000 TS SHRA SCT025CB 
     PROB30 
     TEMPO 1704/1707 2500 BCFG
       
TAF LESO 161100Z 1612/1712 01006KT 9999 FEW040 TX26/1614Z TN19/1705Z
       
TAF LEXJ 160800Z 1609/1709 VRB04KT 9999 SCT040 TX24/1614Z TN17/1705Z 
     PROB40 
     TEMPO 1611/1618 04010KT 
     PROB30 
     TEMPO 1615/1621 TSRA SCT030CB 
     TEMPO 1621/1708 1500 BR 
     PROB40 
     TEMPO 1621/1707 0600 BCFG BKN005
       
TAF LEST 161100Z 1612/1712 07005KT 9999 SCT030 TX27/1615Z TN14/1705Z 
     TEMPO 1612/1621 3000 RA SHRA SCT030TCU 
     PROB40 
     TEMPO 1613/1621 TS SCT030CB
       
TAF LESU 160800Z 1609/1709 VRB04KT 9999 SCT060 TX28/1612Z TN12/1706Z 
     TEMPO 1612/1618 20010KT 
     PROB30 
     TEMPO 1615/1620 SHRA FEW060TCU
       
TAF LEZL 160800Z 1609/1709 24006KT 9999 FEW020 TX30/1615Z TN20/1705Z
       
TAF LEBZ 161100Z 1612/1712 28006KT 9999 FEW040 TX32/1614Z TN15/1706Z
       
TAF GCXO 160800Z 1609/1709 12005KT CAVOK TX28/1614Z TN21/1705Z 
     BECMG 1611/1613 31010KT 
     PROB40 
     TEMPO 1609/1611 TSRA SCT120CB
       
TAF AMD GCTS 161102Z 1611/1709 23007KT 9999 BKN130 TX31/1614Z TN22/1705Z 
     PROB40 
     TEMPO 1611/1617 08016KT
       
TAF LETO 161100Z 1612/1712 VRB05KT 9999 FEW028 TX25/1615Z TN14/1706Z
       
TAF LEVC 161100Z 1612/1712 09008KT 9999 FEW030 TX27/1612Z TN18/1706Z 
     BECMG 1619/1621 VRB03KT 
     PROB40 
     TEMPO 1622/1706 4000 BR BKN010 
     PROB30 
     TEMPO 1703/1707 1000 BCFG BKN005
       
TAF LEVD 161100Z 1612/1712 10005KT CAVOK TX24/1615Z TN12/1706Z 
     PROB30 
     TEMPO 1613/1618 4000 SHRA SCT030TCU 
     PROB30 
     TEMPO 1613/1618 VRB15G25KT 3000 TS SHRA SCT025CB 
     TEMPO 1703/1708 2500 BCFG 
     PROB40 
     TEMPO 1704/1708 1000 BCFG BKN004
       
TAF LEVX 161100Z 1612/1712 VRB05KT 9999 SCT035 TX27/1614Z TN17/1705Z 
     TEMPO 1612/1619 29010KT 
     TEMPO 1612/1621 3000 RA SHRA SCT030TCU 
     PROB40 
     TEMPO 1613/1621 TS SCT030CB
       
TAF LEVT 161100Z 1612/1712 VRB05KT 9999 SCT030 TX27/1614Z TN13/1705Z 
     PROB40 
     TEMPO 1613/1619 03010KT 
     PROB40 
     TEMPO 1613/1620 SHRA SCT030TCU 
     PROB30 
     TEMPO 1614/1620 TS SCT030CB 
     PROB40 
     TEMPO 1703/1708 0600 BCFG BKN005
       
TAF LEZG 161100Z 1612/1712 10007KT 9999 SCT050 TX30/1614Z TN18/1706Z 
     BECMG 1618/1620 25007KT